Time;durP1;ratioP1;P1;durP2;ratioP2;P2;SDS_P1;SDS_P2;PMS_P1;PMS_P2;Temp;Humidity;BMP_temperature;BMP_pressure;BME280_temperature;BME280_humidity;BME280_pressure;Samples;Min_cycle;Max_cycle;Signal;HPM_P1;HPM_P2
2021/12/03 00:01:32;;;;;;;5.27;2.83;;;;;2.60;95343.00;;;;8361373;28;20534;-68
2021/12/03 00:06:03;;;;;;;2.97;2.23;;;;;2.60;95337.00;;;;8360761;28;20748;-68
2021/12/03 00:10:10;;;;;;;4.17;3.17;;;;;2.50;95343.00;;;;8360568;28;20216;-68
2021/12/03 00:14:13;;;;;;;7.50;4.33;;;;;2.50;95352.00;;;;8361508;28;20648;-68
2021/12/03 00:18:17;;;;;;;3.07;2.40;;;;;2.50;95343.00;;;;8360204;28;20298;-69
2021/12/03 00:22:21;;;;;;;7.27;4.00;;;;;2.50;95357.00;;;;8361373;28;20388;-67
2021/12/03 00:26:59;;;;;;;4.10;3.30;;;;;2.50;95368.00;;;;8360208;28;20655;-68
2021/12/03 00:31:03;;;;;;;3.37;2.47;;;;;2.50;95381.00;;;;8360206;28;20255;-68
2021/12/03 00:35:37;;;;;;;7.13;3.37;;;;;2.50;95389.00;;;;8360929;28;20228;-68
2021/12/03 00:39:40;;;;;;;4.30;2.63;;;;;2.40;95402.00;;;;8360259;28;20227;-68
2021/12/03 00:44:14;;;;;;;8.30;3.83;;;;;2.40;95407.00;;;;8359979;28;20330;-68
2021/12/03 00:48:18;;;;;;;7.77;3.30;;;;;2.40;95411.00;;;;8361945;28;20217;-68
2021/12/03 00:52:22;;;;;;;8.40;3.77;;;;;2.40;95430.00;;;;8366479;28;20220;-68
2021/12/03 00:56:25;;;;;;;8.77;3.53;;;;;2.50;95433.00;;;;8366273;28;20222;-68
2021/12/03 01:00:59;;;;;;;5.00;2.87;;;;;2.50;95435.00;;;;8366794;28;20227;-68
2021/12/03 01:05:06;;;;;;;6.87;3.23;;;;;2.40;95437.00;;;;8365287;28;20605;-68
2021/12/03 01:09:40;;;;;;;3.60;2.27;;;;;2.40;95445.00;;;;8366600;28;20701;-68
2021/12/03 01:14:17;;;;;;;2.93;2.50;;;;;2.30;95447.00;;;;8366010;28;20319;-68
2021/12/03 01:18:20;;;;;;;10.47;4.50;;;;;2.20;95465.00;;;;8365293;28;20225;-68
2021/12/03 01:22:26;;;;;;;3.33;2.57;;;;;2.20;95463.00;;;;8365719;28;20234;-68
2021/12/03 01:27:00;;;;;;;5.13;2.40;;;;;2.20;95478.00;;;;8365737;28;20227;-68
2021/12/03 01:31:04;;;;;;;4.50;3.03;;;;;2.10;95488.00;;;;8364559;28;20252;-68
2021/12/03 01:35:38;;;;;;;2.87;2.17;;;;;2.00;95487.00;;;;8365934;28;20229;-68
2021/12/03 01:39:43;;;;;;;1.73;1.63;;;;;1.90;95476.00;;;;8364876;28;20225;-68
2021/12/03 01:44:17;;;;;;;3.70;3.03;;;;;1.80;95475.00;;;;8365226;28;20236;-67
2021/12/03 01:48:54;;;;;;;2.73;2.17;;;;;1.70;95476.00;;;;8363559;28;20214;-67
2021/12/03 01:52:58;;;;;;;2.70;2.03;;;;;1.60;95461.00;;;;8364095;28;20234;-67
2021/12/03 01:57:33;;;;;;;5.63;1.83;;;;;1.60;95463.00;;;;8364027;28;20223;-67
2021/12/03 02:01:36;;;;;;;2.67;1.73;;;;;1.50;95467.00;;;;8364361;28;20671;-67
2021/12/03 02:06:14;;;;;;;3.93;2.40;;;;;1.50;95484.00;;;;8363643;28;20218;-67
2021/12/03 02:10:19;;;;;;;3.33;2.60;;;;;1.40;95489.00;;;;8363883;28;20221;-67
2021/12/03 02:14:52;;;;;;;2.63;2.07;;;;;1.50;95493.00;;;;8364396;28;20224;-67
2021/12/03 02:18:57;;;;;;;4.37;2.70;;;;;1.60;95510.00;;;;8363096;28;20223;-68
2021/12/03 02:23:02;;;;;;;3.53;2.97;;;;;1.70;95510.00;;;;8363790;28;20259;-67
2021/12/03 02:27:06;;;;;;;2.97;2.70;;;;;1.80;95512.00;;;;8363829;28;20224;-68
2021/12/03 02:31:10;;;;;;;8.77;4.27;;;;;1.90;95508.00;;;;8362825;28;20677;-67
2021/12/03 02:35:13;;;;;;;3.77;2.57;;;;;1.90;95510.00;;;;8363892;28;20245;-68
2021/12/03 02:39:49;;;;;;;6.37;3.10;;;;;2.00;95514.00;;;;8362753;28;20221;-68
2021/12/03 02:43:52;;;;;;;3.60;2.53;;;;;2.00;95513.00;;;;8361462;28;20711;-68
2021/12/03 02:48:31;;;;;;;5.70;2.70;;;;;2.10;95517.00;;;;8363707;28;20224;-68
2021/12/03 02:52:34;;;;;;;6.50;2.83;;;;;2.20;95535.00;;;;8361873;28;20264;-68
2021/12/03 02:57:10;;;;;;;7.33;3.87;;;;;2.30;95535.00;;;;8362859;28;20241;-68
2021/12/03 03:01:14;;;;;;;9.53;4.33;;;;;2.30;95543.00;;;;8402146;22;20234;-68
2021/12/03 03:05:19;;;;;;;3.43;2.63;;;;;2.30;95539.00;;;;8379334;28;20222;-68
2021/12/03 03:09:22;;;;;;;10.40;2.80;;;;;2.30;95538.00;;;;8382554;28;20636;-68
2021/12/03 03:13:26;;;;;;;4.07;2.63;;;;;2.30;95539.00;;;;8380531;28;20342;-67
2021/12/03 03:17:31;;;;;;;5.53;2.83;;;;;2.30;95553.00;;;;8379630;28;20694;-68
2021/12/03 03:21:35;;;;;;;2.13;1.90;;;;;2.30;95552.00;;;;8381597;28;20357;-69
2021/12/03 03:25:39;;;;;;;5.93;3.87;;;;;2.20;95567.00;;;;8380298;28;20313;-69
2021/12/03 03:29:45;;;;;;;9.63;4.03;;;;;2.20;95571.00;;;;8380007;28;20256;-69
2021/12/03 03:33:48;;;;;;;14.20;4.23;;;;;2.20;95578.00;;;;8377010;28;20255;-70
2021/12/03 03:37:51;;;;;;;5.30;3.60;;;;;2.20;95565.00;;;;8380199;28;20268;-70
2021/12/03 03:41:54;;;;;;;9.00;3.20;;;;;2.20;95580.00;;;;8375048;28;20741;-69
2021/12/03 03:45:59;;;;;;;5.63;2.83;;;;;2.10;95575.00;;;;8380149;28;20618;-69
2021/12/03 03:50:03;;;;;;;9.67;4.23;;;;;2.10;95575.00;;;;8381542;28;20730;-69
2021/12/03 03:54:07;;;;;;;3.80;2.97;;;;;2.10;95577.00;;;;8380087;28;20255;-70
2021/12/03 03:58:10;;;;;;;3.30;2.27;;;;;2.00;95579.00;;;;8379940;28;20265;-70
2021/12/03 04:02:15;;;;;;;3.50;2.50;;;;;1.90;95577.00;;;;8361248;28;20229;-69
2021/12/03 04:06:20;;;;;;;7.57;3.20;;;;;1.90;95592.00;;;;8345633;28;20232;-69
2021/12/03 04:10:23;;;;;;;4.33;2.83;;;;;1.90;95584.00;;;;8358258;28;20245;-69
2021/12/03 04:14:26;;;;;;;4.47;2.50;;;;;1.80;95601.00;;;;8356391;28;20228;-69
2021/12/03 04:18:32;;;;;;;4.47;2.93;;;;;1.80;95609.00;;;;8347984;28;20309;-69
2021/12/03 04:22:35;;;;;;;4.30;2.53;;;;;1.70;95618.00;;;;8349051;28;20576;-70
2021/12/03 04:26:38;;;;;;;12.20;2.63;;;;;1.70;95630.00;;;;8354055;28;20255;-70
2021/12/03 04:30:42;;;;;;;3.73;2.93;;;;;1.70;95630.00;;;;8352482;28;20281;-72
2021/12/03 04:34:47;;;;;;;3.17;2.37;;;;;1.70;95644.00;;;;8353855;28;20565;-71
2021/12/03 04:38:50;;;;;;;4.73;2.77;;;;;1.80;95635.00;;;;8353154;28;20261;-71
2021/12/03 04:42:53;;;;;;;3.97;2.10;;;;;1.80;95645.00;;;;8354427;28;20263;-71
2021/12/03 04:46:57;;;;;;;11.37;2.10;;;;;1.80;95651.00;;;;8355789;28;20726;-71
2021/12/03 04:51:01;;;;;;;3.27;2.40;;;;;1.80;95656.00;;;;8355067;28;20260;-71
2021/12/03 04:55:06;;;;;;;2.93;2.63;;;;;1.80;95662.00;;;;8352461;28;20251;-71
2021/12/03 04:59:09;;;;;;;3.50;2.60;;;;;1.90;95667.00;;;;8354233;28;20245;-71
2021/12/03 05:03:13;;;;;;;3.47;2.87;;;;;1.90;95678.00;;;;8347367;28;20263;-69
2021/12/03 05:07:29;;;;;;;2.87;2.37;;;;;1.90;95679.00;;;;8344883;28;20324;-72
2021/12/03 05:11:32;;;;;;;2.50;2.20;;;;;1.90;95696.00;;;;8351508;28;20221;-72
2021/12/03 05:15:37;;;;;;;4.57;2.53;;;;;1.90;95691.00;;;;8351657;28;20236;-73
2021/12/03 05:19:40;;;;;;;8.70;3.17;;;;;1.90;95704.00;;;;8354558;28;20318;-72
2021/12/03 05:23:45;;;;;;;4.53;2.93;;;;;1.90;95704.00;;;;8335905;28;20252;-72
2021/12/03 05:27:49;;;;;;;4.13;3.73;;;;;1.90;95717.00;;;;8322367;28;20264;-72
2021/12/03 05:31:52;;;;;;;6.37;4.20;;;;;1.90;95720.00;;;;8315307;28;20711;-72
2021/12/03 05:36:03;;;;;;;2.47;2.13;;;;;1.80;95720.00;;;;8340766;28;20225;-70
2021/12/03 05:40:11;;;;;;;5.73;4.70;;;;;1.70;95724.00;;;;8333704;28;20259;-71
2021/12/03 05:44:14;;;;;;;4.07;1.97;;;;;1.70;95738.00;;;;8340388;28;20242;-70
2021/12/03 05:48:17;;;;;;;9.37;4.23;;;;;1.70;95753.00;;;;8340498;28;20738;-71
2021/12/03 05:52:21;;;;;;;3.17;2.73;;;;;1.60;95759.00;;;;8336741;28;20853;-72
2021/12/03 05:56:26;;;;;;;7.57;3.30;;;;;1.70;95762.00;;;;8341217;28;20309;-72
2021/12/03 06:00:37;;;;;;;176.90;59.33;;;;;1.80;95767.00;;;;8343366;28;20569;-71
2021/12/03 06:04:40;;;;;;;965.53;363.40;;;;;1.80;95767.00;;;;8340183;28;20262;-72
2021/12/03 06:08:44;;;;;;;22.70;9.50;;;;;1.80;95777.00;;;;8341498;28;20257;-72
2021/12/03 06:12:49;;;;;;;59.80;19.07;;;;;1.90;95779.00;;;;8341256;28;20256;-72
2021/12/03 06:16:52;;;;;;;73.33;25.60;;;;;1.90;95795.00;;;;8346203;28;20321;-71
2021/12/03 06:20:55;;;;;;;62.57;17.70;;;;;1.90;95804.00;;;;8346946;28;20261;-72
2021/12/03 06:25:00;;;;;;;430.70;137.07;;;;;2.00;95810.00;;;;8344288;28;21054;-71
2021/12/03 06:29:05;;;;;;;568.43;148.30;;;;;2.00;95817.00;;;;8343164;28;20225;-71
2021/12/03 06:33:08;;;;;;;365.47;91.60;;;;;2.00;95817.00;;;;8327390;28;20582;-72
2021/12/03 06:37:11;;;;;;;373.87;99.63;;;;;2.10;95824.00;;;;8340379;28;20257;-71
2021/12/03 06:41:14;;;;;;;27.90;11.47;;;;;2.10;95821.00;;;;8342492;28;20217;-72
2021/12/03 06:45:20;;;;;;;56.47;22.87;;;;;2.10;95825.00;;;;8342496;28;20220;-72
2021/12/03 06:49:24;;;;;;;11.20;6.20;;;;;2.10;95829.00;;;;8341062;28;20229;-73
2021/12/03 06:53:37;;;;;;;12.37;5.70;;;;;2.10;95836.00;;;;8344631;28;20312;-73
2021/12/03 06:57:43;;;;;;;13.47;6.70;;;;;2.10;95846.00;;;;8344180;28;20675;-73
2021/12/03 07:01:48;;;;;;;7.40;4.53;;;;;2.10;95851.00;;;;8346060;28;20234;-73
2021/12/03 07:05:51;;;;;;;10.47;4.57;;;;;2.10;95860.00;;;;8347405;28;20863;-73
2021/12/03 07:09:55;;;;;;;5.87;3.97;;;;;2.10;95854.00;;;;8345845;28;20385;-73
2021/12/03 07:13:59;;;;;;;7.93;4.17;;;;;2.20;95866.00;;;;8345046;28;20577;-73
2021/12/03 07:18:11;;;;;;;13.40;7.03;;;;;2.20;95867.00;;;;8340535;28;20256;-73
2021/12/03 07:22:18;;;;;;;17.00;8.23;;;;;2.20;95871.00;;;;8347027;28;20282;-73
2021/12/03 07:26:23;;;;;;;7.53;3.53;;;;;2.30;95876.00;;;;8338520;28;20245;-74
2021/12/03 07:30:30;;;;;;;9.47;4.00;;;;;2.30;95883.00;;;;8340002;28;20725;-72
2021/12/03 07:34:35;;;;;;;24.17;12.20;;;;;2.20;95892.00;;;;8347731;28;20325;-73
2021/12/03 07:38:38;;;;;;;8.80;5.03;;;;;2.20;95905.00;;;;8334941;28;20725;-72
2021/12/03 07:42:42;;;;;;;13.83;6.23;;;;;2.20;95905.00;;;;8337756;28;20658;-72
2021/12/03 07:46:45;;;;;;;6.63;4.03;;;;;2.20;95901.00;;;;8335489;28;20231;-72
2021/12/03 07:50:51;;;;;;;7.60;4.20;;;;;2.20;95912.00;;;;8305022;28;20237;-72
2021/12/03 07:54:54;;;;;;;11.03;6.40;;;;;2.20;95917.00;;;;8337452;28;20232;-72
2021/12/03 07:58:58;;;;;;;7.90;3.97;;;;;2.20;95923.00;;;;8337669;28;20237;-73
2021/12/03 08:03:01;;;;;;;17.87;10.73;;;;;2.30;95919.00;;;;8342535;28;20232;-73
2021/12/03 08:07:09;;;;;;;25.03;7.90;;;;;2.40;95926.00;;;;8337273;28;20260;-74
2021/12/03 08:11:12;;;;;;;9.57;6.60;;;;;2.40;95931.00;;;;8336671;28;20318;-76
2021/12/03 08:15:16;;;;;;;39.43;24.53;;;;;2.40;95933.00;;;;8327895;28;20705;-77
2021/12/03 08:19:20;;;;;;;4.00;3.43;;;;;2.40;95934.00;;;;8333479;28;20220;-77
2021/12/03 08:23:25;;;;;;;5.40;3.23;;;;;2.40;95942.00;;;;8338179;28;20272;-76
2021/12/03 08:27:32;;;;;;;3.80;3.13;;;;;2.50;95951.00;;;;8340843;28;20224;-76
2021/12/03 08:31:35;;;;;;;9.07;4.67;;;;;2.50;95954.00;;;;8338949;28;20245;-76
2021/12/03 08:35:39;;;;;;;6.43;3.60;;;;;2.50;95963.00;;;;8335221;28;20229;-76
2021/12/03 08:39:44;;;;;;;9.23;3.73;;;;;2.60;95961.00;;;;8345153;28;20326;-78
2021/12/03 08:43:48;;;;;;;12.27;4.33;;;;;2.60;95963.00;;;;8344578;28;20262;-77
2021/12/03 08:47:55;;;;;;;5.93;3.93;;;;;2.70;95962.00;;;;8335228;28;20237;-74
2021/12/03 08:52:27;;;;;;;93.37;30.77;;;;;2.70;95963.00;;;;8341754;28;20230;-80
2021/12/03 08:56:32;;;;;;;47.50;22.83;;;;;2.70;95971.00;;;;8340640;28;20231;-74
2021/12/03 09:00:36;;;;;;;36.30;16.00;;;;;2.70;95967.00;;;;8336019;28;20309;-77
2021/12/03 09:04:39;;;;;;;20.50;12.10;;;;;2.70;95978.00;;;;8339573;28;20638;-76
2021/12/03 09:08:42;;;;;;;10.27;5.20;;;;;2.70;95971.00;;;;8334413;28;20701;-74
2021/12/03 09:12:47;;;;;;;16.23;6.97;;;;;2.70;95981.00;;;;8338592;28;20244;-75
2021/12/03 09:16:56;;;;;;;9.30;5.07;;;;;2.70;95978.00;;;;8346895;28;20282;-74
2021/12/03 09:21:04;;;;;;;14.83;6.70;;;;;2.80;95972.00;;;;8347364;28;20229;-73
2021/12/03 09:25:10;;;;;;;9.23;4.97;;;;;2.80;95977.00;;;;8347523;28;20231;-72
2021/12/03 09:29:23;;;;;;;9.27;5.23;;;;;2.80;95982.00;;;;8346344;28;20236;-72
2021/12/03 09:33:28;;;;;;;12.20;4.90;;;;;2.80;95986.00;;;;8344732;28;21082;-72
2021/12/03 09:37:32;;;;;;;7.17;4.70;;;;;2.80;95985.00;;;;8344432;28;20224;-72
2021/12/03 09:41:35;;;;;;;7.23;4.70;;;;;2.90;95991.00;;;;8340433;28;20238;-71
2021/12/03 09:45:46;;;;;;;6.87;4.17;;;;;2.90;95997.00;;;;8341980;28;20980;-71
2021/12/03 09:49:54;;;;;;;8.47;4.97;;;;;3.00;95996.00;;;;8340857;28;20230;-72
2021/12/03 10:04:18;;;;;;;8.00;4.17;;;;;3.00;95991.00;;;;8363047;28;20713;-71
2021/12/03 10:13:37;;;;;;;9.63;5.20;;;;;3.10;95987.00;;;;8362520;28;20229;-71
2021/12/03 10:18:17;;;;;;;12.00;4.97;;;;;3.20;95977.00;;;;8363018;28;20231;-75
2021/12/03 10:23:32;;;;;;;11.53;5.30;;;;;3.20;95966.00;;;;8355522;28;20243;-75
2021/12/03 10:28:11;;;;;;;9.97;5.33;;;;;3.10;95970.00;;;;8362954;28;20221;-72
2021/12/03 10:41:37;;;;;;;7.50;4.57;;;;;2.90;95961.00;;;;8260375;28;20593;-72
2021/12/03 10:45:50;;;;;;;8.90;5.03;;;;;2.90;95954.00;;;;8320291;28;20652;-72
2021/12/03 10:50:05;;;;;;;8.07;4.83;;;;;2.90;95950.00;;;;8354677;28;20578;-71
2021/12/03 10:55:07;;;;;;;5.23;4.00;;;;;2.80;95952.00;;;;8362393;28;20673;-73
2021/12/03 11:38:57;;;;;;;6.03;4.17;;;;;3.50;95946.00;;;;8360167;28;20319;-70
2021/12/03 14:38:53;;;;;;;7.93;4.83;;;;;2.00;95883.00;;;;8363087;28;20214;-80
2021/12/03 14:43:11;;;;;;;9.27;5.20;;;;;1.90;95883.00;;;;8362730;28;20228;-77
2021/12/03 14:47:40;;;;;;;10.37;5.50;;;;;1.90;95875.00;;;;8363666;28;20258;-79
2021/12/03 14:52:04;;;;;;;12.97;5.80;;;;;1.80;95885.00;;;;8362446;28;20241;-79
2021/12/03 14:56:23;;;;;;;7.77;4.87;;;;;1.70;95884.00;;;;8362731;28;20649;-77
2021/12/03 15:00:59;;;;;;;10.10;5.63;;;;;1.60;95878.00;;;;8359813;28;20246;-80
2021/12/03 15:05:57;;;;;;;8.60;5.03;;;;;1.50;95872.00;;;;8348836;28;20225;-80
2021/12/03 15:10:29;;;;;;;9.57;5.30;;;;;1.40;95862.00;;;;8359249;28;20221;-83
2021/12/03 15:19:49;;;;;;;11.43;5.70;;;;;1.30;95852.00;;;;8329947;28;20246;-67
2021/12/03 15:24:55;;;;;;;10.70;5.67;;;;;1.10;95854.00;;;;8361081;28;20248;-67
2021/12/03 15:29:33;;;;;;;19.23;8.93;;;;;1.00;95865.00;;;;8361605;28;20535;-67
2021/12/03 15:34:18;;;;;;;23.30;13.23;;;;;1.00;95867.00;;;;8361126;28;20247;-68
2021/12/03 15:38:56;;;;;;;35.77;20.27;;;;;1.00;95869.00;;;;8361087;28;20674;-68
2021/12/03 16:06:42;;;;;;;21.57;10.30;;;;;0.90;95863.00;;;;8360432;28;20289;-78
2021/12/03 16:21:24;;;;;;;10.33;5.13;;;;;0.60;95838.00;;;;8365581;28;20291;-78
2021/12/03 16:44:00;;;;;;;11.70;5.33;;;;;0.60;95845.00;;;;8367253;28;20224;-77
2021/12/03 16:53:07;;;;;;;10.80;5.50;;;;;0.60;95848.00;;;;8364165;28;20244;-78
2021/12/03 16:57:44;;;;;;;9.40;5.63;;;;;0.60;95834.00;;;;8367200;28;20240;-79
2021/12/03 17:02:19;;;;;;;17.80;7.60;;;;;0.60;95823.00;;;;8366438;28;20221;-77
2021/12/03 17:16:22;;;;;;;10.30;5.67;;;;;0.50;95829.00;;;;8360410;28;20229;-78
2021/12/03 17:30:55;;;;;;;9.63;5.23;;;;;0.30;95819.00;;;;8364774;28;20225;-79
2021/12/03 17:49:15;;;;;;;238.13;115.73;;;;;0.20;95807.00;;;;8364883;28;20221;-75
2021/12/03 17:58:05;;;;;;;82.17;35.33;;;;;0.10;95801.00;;;;8364308;28;20227;-74
2021/12/03 18:02:41;;;;;;;65.30;28.47;;;;;0.00;95788.00;;;;8364068;28;20228;-76
2021/12/03 18:07:19;;;;;;;13.13;6.20;;;;;0.00;95790.00;;;;8363989;28;20260;-74
2021/12/03 18:58:06;;;;;;;16.53;7.17;;;;;-0.20;95758.00;;;;8214683;28;20221;-70
2021/12/03 19:02:43;;;;;;;13.50;7.07;;;;;0.00;95766.00;;;;8228465;28;20227;-70
2021/12/03 19:07:22;;;;;;;11.80;6.33;;;;;0.00;95761.00;;;;8344256;28;20212;-69
2021/12/03 19:16:25;;;;;;;15.10;7.00;;;;;0.00;95747.00;;;;8361438;28;20236;-70
2021/12/03 19:21:01;;;;;;;11.63;6.10;;;;;-0.10;95748.00;;;;8362420;28;20221;-71
2021/12/03 19:25:37;;;;;;;10.50;6.20;;;;;-0.20;95738.00;;;;8361233;28;20275;-69
2021/12/03 19:30:12;;;;;;;12.23;5.83;;;;;-0.40;95749.00;;;;8360974;28;20327;-69
2021/12/03 19:34:48;;;;;;;10.33;5.63;;;;;-0.50;95724.00;;;;8354692;28;20220;-68
2021/12/03 19:39:26;;;;;;;10.63;5.50;;;;;-0.70;95721.00;;;;8362014;28;20239;-68
2021/12/03 19:44:09;;;;;;;9.67;5.63;;;;;-0.80;95721.00;;;;8361359;28;20216;-69
2021/12/03 19:48:43;;;;;;;11.37;6.00;;;;;-0.90;95710.00;;;;8360585;28;20224;-68
2021/12/03 19:53:18;;;;;;;11.93;6.13;;;;;-1.10;95699.00;;;;8361279;28;20329;-69
2021/12/03 19:57:58;;;;;;;12.23;6.13;;;;;-1.10;95696.00;;;;8359198;28;20278;-69
2021/12/03 20:02:37;;;;;;;10.50;6.10;;;;;-1.20;95681.00;;;;8360130;28;20232;-68
2021/12/03 20:06:44;;;;;;;9.83;5.63;;;;;-1.20;95679.00;;;;8361383;28;20221;-68
2021/12/03 20:10:49;;;;;;;13.63;5.37;;;;;-1.30;95674.00;;;;8360130;28;20666;-68
2021/12/03 20:15:26;;;;;;;12.07;5.93;;;;;-1.30;95662.00;;;;8360581;28;20232;-68
2021/12/03 20:19:59;;;;;;;12.57;6.03;;;;;-1.40;95655.00;;;;8360665;28;20216;-68
2021/12/03 20:24:48;;;;;;;10.10;6.60;;;;;-1.40;95638.00;;;;8360044;28;20212;-69
2021/12/03 20:29:15;;;;;;;9.73;5.40;;;;;-1.40;95642.00;;;;8360523;28;20224;-68
2021/12/03 20:34:03;;;;;;;11.10;6.03;;;;;-1.40;95635.00;;;;8360726;28;20212;-68
2021/12/03 20:38:25;;;;;;;9.27;4.70;;;;;-1.50;95626.00;;;;8360313;28;20232;-68
2021/12/03 20:43:08;;;;;;;8.30;5.07;;;;;-1.50;95619.00;;;;8359797;28;20307;-68
2021/12/03 20:57:37;;;;;;;14.13;5.27;;;;;-1.60;95609.00;;;;8359397;28;20228;-68
2021/12/03 21:16:50;;;;;;;23.57;6.27;;;;;-1.70;95581.00;;;;8365176;28;20244;-71
2021/12/03 21:21:09;;;;;;;10.47;5.70;;;;;-1.60;95572.00;;;;8365459;28;20224;-71
2021/12/03 21:25:47;;;;;;;13.57;6.10;;;;;-1.40;95575.00;;;;8365436;28;20209;-75
2021/12/03 21:40:14;;;;;;;11.97;5.83;;;;;-1.10;95551.00;;;;8365320;28;20220;-72
2021/12/03 21:44:42;;;;;;;16.23;5.73;;;;;-0.90;95538.00;;;;8365065;28;20224;-72
2021/12/03 21:49:19;;;;;;;7.67;5.00;;;;;-0.70;95541.00;;;;8365504;28;20653;-72
2021/12/03 21:53:22;;;;;;;11.17;5.83;;;;;-0.60;95538.00;;;;8364979;28;20535;-72
2021/12/03 21:57:27;;;;;;;15.20;5.33;;;;;-0.50;95535.00;;;;8364764;28;20252;-72
2021/12/03 22:02:04;;;;;;;9.53;5.60;;;;;-0.60;95520.00;;;;8364926;28;20221;-73
2021/12/03 22:06:41;;;;;;;13.23;5.83;;;;;-0.70;95522.00;;;;8364976;28;20292;-72
2021/12/03 22:10:44;;;;;;;13.70;5.40;;;;;-0.70;95516.00;;;;8362921;28;20216;-74
2021/12/03 22:14:50;;;;;;;11.87;6.07;;;;;-0.60;95519.00;;;;8364566;28;20221;-75
2021/12/03 22:19:24;;;;;;;11.73;5.87;;;;;-0.60;95496.00;;;;8364638;28;20216;-74
2021/12/03 22:24:01;;;;;;;12.97;5.97;;;;;-0.60;95486.00;;;;8364958;28;20240;-75
2021/12/03 22:28:05;;;;;;;11.23;5.40;;;;;-0.50;95490.00;;;;8363431;28;20558;-73
2021/12/03 22:32:10;;;;;;;12.80;5.50;;;;;-0.50;95495.00;;;;8364242;28;20225;-74
2021/12/03 22:36:13;;;;;;;11.93;5.97;;;;;-0.50;95492.00;;;;8363022;28;20225;-74
2021/12/03 22:40:16;;;;;;;13.67;6.43;;;;;-0.50;95488.00;;;;8363427;28;20696;-75
2021/12/03 22:44:53;;;;;;;11.33;6.10;;;;;-0.50;95483.00;;;;8364181;28;20224;-74
2021/12/03 22:49:16;;;;;;;11.13;6.17;;;;;-0.50;95478.00;;;;8362944;28;20240;-74
2021/12/03 22:53:19;;;;;;;14.00;6.17;;;;;-0.50;95448.00;;;;8363455;28;20220;-75
2021/12/03 22:57:55;;;;;;;13.17;6.70;;;;;-0.40;95434.00;;;;8363380;28;20287;-75
2021/12/03 23:02:32;;;;;;;12.17;6.03;;;;;-0.40;95439.00;;;;8362766;28;20221;-75
2021/12/03 23:06:40;;;;;;;10.47;5.70;;;;;-0.30;95419.00;;;;8362731;28;20251;-75
2021/12/03 23:10:44;;;;;;;13.60;6.47;;;;;-0.20;95420.00;;;;8362161;28;20216;-75
2021/12/03 23:14:47;;;;;;;14.20;6.00;;;;;-0.10;95417.00;;;;8362607;28;20227;-75
2021/12/03 23:19:25;;;;;;;16.03;6.77;;;;;0.00;95424.00;;;;8361861;28;20236;-74
2021/12/03 23:23:30;;;;;;;14.33;6.10;;;;;0.10;95416.00;;;;8362179;28;20239;-74
2021/12/03 23:28:05;;;;;;;11.37;6.53;;;;;0.10;95395.00;;;;8361773;28;20244;-74
2021/12/03 23:32:09;;;;;;;9.00;5.40;;;;;0.20;95395.00;;;;8362129;28;20220;-75
2021/12/03 23:36:43;;;;;;;12.47;6.10;;;;;0.20;95394.00;;;;8361648;28;20668;-74
2021/12/03 23:41:19;;;;;;;9.53;5.50;;;;;0.30;95379.00;;;;8362250;28;20586;-76
2021/12/03 23:45:22;;;;;;;13.43;6.07;;;;;0.30;95371.00;;;;8361677;28;20221;-76
2021/12/03 23:49:56;;;;;;;15.17;6.83;;;;;0.30;95364.00;;;;8361576;28;20224;-77
2021/12/03 23:53:59;;;;;;;14.20;5.60;;;;;0.40;95343.00;;;;8362227;28;20216;-77
2021/12/03 23:58:40;;;;;;;10.50;5.60;;;;;0.40;95334.00;;;;8361252;28;20666;-77
